Aviation Digital Data Service (ADDS)

Output produced by METARs form (1542 UTC 26 May 2015)
found at http://aviationweather.gov/adds/metars/
 
KLAX 261519Z 2615/2718 VRB05KT P6SM SCT010 OVC020 
     FM261700 28007KT P6SM SCT015 OVC024 
     FM262200 25014KT P6SM SCT025 SCT250 
     FM270300 25008KT P6SM BKN015 BKN250 
     FM271000 VRB03KT P6SM OVC015 
     FM271700 23005KT 4SM HZ OVC020